Time;durP1;ratioP1;P1;durP2;ratioP2;P2;SDS_P1;SDS_P2;PMS_P1;PMS_P2;Temp;Humidity;BMP_temperature;BMP_pressure;BME280_temperature;BME280_humidity;BME280_pressure;Samples;Min_cycle;Max_cycle;Signal;HPM_P1;HPM_P2
2022/10/07 00:00:41;;;;;;;;;;;;;;;7.54;100.00;99538.69;7382576;19;19918;-60
2022/10/07 00:03:12;;;;;;;;;;;;;;;7.80;100.00;99538.81;7384797;19;20323;-61
2022/10/07 00:05:42;;;;;;;;;;;;;;;6.73;100.00;99546.09;7386268;19;19922;-60
2022/10/07 00:08:15;;;;;;;;;;;;;;;7.90;100.00;99542.91;7375287;19;19937;-61
2022/10/07 00:10:45;;;;;;;;;;;;;;;6.86;100.00;99542.28;7384694;19;19950;-60
2022/10/07 00:13:17;;;;;;;;;;;;;;;6.30;100.00;99539.34;7388402;19;19970;-62
2022/10/07 00:15:49;;;;;;;;;;;;;;;6.41;100.00;99545.19;7384007;19;19922;-62
2022/10/07 00:18:19;;;;;;;;;;;;;;;6.09;100.00;99548.53;7392188;19;19943;-60
2022/10/07 00:20:48;;;;;;;;;;;;;;;6.28;100.00;99543.75;7390087;19;19910;-66
2022/10/07 00:23:18;;;;;;;;;;;;;;;6.11;100.00;99546.75;7395057;19;19914;-60
2022/10/07 00:25:48;;;;;;;;;;;;;;;6.29;100.00;99541.09;7393883;19;19926;-61
2022/10/07 00:28:19;;;;;;;;;;;;;;;6.18;100.00;99543.06;7386459;19;19942;-66
2022/10/07 00:30:58;;;;;;;;;;;;;;;6.08;100.00;99543.34;7392183;19;19918;-60
2022/10/07 00:33:28;;;;;;;;;;;;;;;6.16;100.00;99537.03;7393202;19;19922;-63
2022/10/07 00:35:57;;;;;;;;;;;;;;;5.92;100.00;99545.41;7385245;19;19922;-60
2022/10/07 00:38:27;;;;;;;;;;;;;;;5.93;100.00;99541.94;7391186;19;20347;-60
2022/10/07 00:40:56;;;;;;;;;;;;;;;5.85;100.00;99535.94;7393956;19;19910;-60
2022/10/07 00:43:28;;;;;;;;;;;;;;;5.86;100.00;99537.69;7386851;19;19931;-59
2022/10/07 00:46:02;;;;;;;;;;;;;;;5.83;100.00;99534.28;7391613;19;19978;-60
2022/10/07 00:48:34;;;;;;;;;;;;;;;5.89;100.00;99534.16;7389119;19;19930;-63
2022/10/07 00:51:04;;;;;;;;;;;;;;;5.98;100.00;99532.22;7390566;19;19918;-60
2022/10/07 00:53:38;;;;;;;;;;;;;;;5.78;100.00;99530.91;7390414;19;19915;-59
2022/10/07 00:56:09;;;;;;;;;;;;;;;5.83;100.00;99523.81;7387402;19;20311;-67
2022/10/07 00:58:39;;;;;;;;;;;;;;;5.78;100.00;99523.94;7395263;19;19928;-60
2022/10/07 01:01:11;;;;;;;;;;;;;;;5.72;100.00;99515.34;7389801;19;19978;-59
2022/10/07 01:03:41;;;;;;;;;;;;;;;5.69;100.00;99520.66;7383483;19;19938;-60
2022/10/07 01:06:12;;;;;;;;;;;;;;;5.76;100.00;99520.50;7390632;19;19917;-60
2022/10/07 01:08:43;;;;;;;;;;;;;;;6.05;100.00;99523.38;7388350;19;20262;-61
2022/10/07 01:11:19;;;;;;;;;;;;;;;5.73;100.00;99515.31;7386162;19;19989;-60
2022/10/07 01:14:00;;;;;;;;;;;;;;;5.48;100.00;99510.66;7387618;19;19939;-61
2022/10/07 01:16:38;;;;;;;;;;;;;;;5.48;100.00;99510.66;7384302;19;19989;-61
2022/10/07 01:19:21;;;;;;;;;;;;;;;5.44;100.00;99515.06;7387671;19;19921;-60
2022/10/07 01:21:58;;;;;;;;;;;;;;;5.33;100.00;99516.19;7385206;19;19919;-60
2022/10/07 01:24:34;;;;;;;;;;;;;;;5.56;100.00;99509.63;7388378;19;20280;-61
2022/10/07 01:27:10;;;;;;;;;;;;;;;5.45;100.00;99511.59;7386873;19;19919;-66
2022/10/07 01:29:42;;;;;;;;;;;;;;;5.45;100.00;99505.50;7386188;19;20254;-60
2022/10/07 01:32:13;;;;;;;;;;;;;;;5.42;100.00;99503.81;7389786;19;20378;-60
2022/10/07 01:34:44;;;;;;;;;;;;;;;5.36;100.00;99501.31;7384137;19;19934;-60
2022/10/07 01:37:17;;;;;;;;;;;;;;;5.36;100.00;99496.09;7389369;19;19907;-59
2022/10/07 01:39:49;;;;;;;;;;;;;;;5.43;100.00;99492.47;7387439;19;20279;-61
2022/10/07 01:42:24;;;;;;;;;;;;;;;5.74;100.00;99504.00;7385289;19;19907;-60
2022/10/07 01:44:56;;;;;;;;;;;;;;;5.52;100.00;99494.91;7388791;19;19919;-60
2022/10/07 01:47:28;;;;;;;;;;;;;;;5.17;100.00;99501.69;7385179;19;20012;-65
2022/10/07 01:49:57;;;;;;;;;;;;;;;5.19;100.00;99503.41;7386510;19;19935;-60
2022/10/07 01:52:36;;;;;;;;;;;;;;;5.14;100.00;99496.56;7388271;19;19982;-60
2022/10/07 01:55:14;;;;;;;;;;;;;;;5.36;100.00;99492.66;7382308;19;20275;-60
2022/10/07 01:57:54;;;;;;;;;;;;;;;5.69;100.00;99498.00;7388410;19;20449;-61
2022/10/07 02:00:24;;;;;;;;;;;;;;;5.84;100.00;99489.84;7381201;19;19915;-60
2022/10/07 02:03:01;;;;;;;;;;;;;;;5.79;100.00;99490.84;7388104;19;19922;-60
2022/10/07 02:05:37;;;;;;;;;;;;;;;5.47;100.00;99485.47;7390529;19;20277;-60
2022/10/07 02:08:14;;;;;;;;;;;;;;;5.26;100.00;99489.34;7386163;19;19926;-60
2022/10/07 02:10:51;;;;;;;;;;;;;;;5.19;100.00;99490.38;7388381;19;19945;-60
2022/10/07 02:13:28;;;;;;;;;;;;;;;5.17;100.00;99486.94;7386935;19;19914;-62
2022/10/07 02:16:04;;;;;;;;;;;;;;;5.35;100.00;99489.16;7388451;19;19970;-62
2022/10/07 02:18:35;;;;;;;;;;;;;;;5.73;100.00;99485.78;7382524;19;19938;-60
2022/10/07 02:21:07;;;;;;;;;;;;;;;5.83;100.00;99475.06;7388161;19;19923;-60
2022/10/07 02:23:39;;;;;;;;;;;;;;;5.92;100.00;99482.72;7387715;19;20403;-63
2022/10/07 02:26:13;;;;;;;;;;;;;;;5.54;100.00;99485.28;7385756;19;19929;-60
2022/10/07 02:28:47;;;;;;;;;;;;;;;5.43;100.00;99489.88;7385579;19;19947;-60
2022/10/07 02:31:24;;;;;;;;;;;;;;;5.13;100.00;99487.00;7381920;19;20355;-61
2022/10/07 02:34:01;;;;;;;;;;;;;;;5.45;100.00;99482.88;7384727;19;19915;-60
2022/10/07 02:36:34;;;;;;;;;;;;;;;5.88;100.00;99481.03;7386754;19;19925;-62
2022/10/07 02:39:06;;;;;;;;;;;;;;;5.67;100.00;99485.88;7382989;19;19925;-61
2022/10/07 02:41:40;;;;;;;;;;;;;;;5.43;100.00;99481.16;7385270;19;19918;-61
2022/10/07 02:44:28;;;;;;;;;;;;;;;5.80;100.00;99480.34;7387327;19;20248;-60
2022/10/07 02:47:02;;;;;;;;;;;;;;;5.37;100.00;99481.31;7388690;19;19918;-61
2022/10/07 02:49:33;;;;;;;;;;;;;;;5.43;100.00;99479.44;7377428;19;19946;-61
2022/10/07 02:52:05;;;;;;;;;;;;;;;5.03;100.00;99470.69;7389624;19;19923;-60
2022/10/07 02:54:38;;;;;;;;;;;;;;;5.22;100.00;99465.97;7385171;19;19915;-61
2022/10/07 02:57:13;;;;;;;;;;;;;;;5.49;100.00;99471.47;7383255;19;19911;-61
2022/10/07 02:59:47;;;;;;;;;;;;;;;5.15;100.00;99464.38;7390385;19;19939;-60
2022/10/07 03:02:25;;;;;;;;;;;;;;;5.07;100.00;99474.94;7379998;19;19915;-60
2022/10/07 03:04:56;;;;;;;;;;;;;;;4.86;100.00;99471.88;7383668;19;19911;-61
2022/10/07 03:07:27;;;;;;;;;;;;;;;5.22;100.00;99463.38;7387378;19;19978;-60
2022/10/07 03:09:56;;;;;;;;;;;;;;;5.45;100.00;99467.22;7380237;19;19919;-61
2022/10/07 03:12:29;;;;;;;;;;;;;;;5.57;100.00;99468.69;7384711;19;19915;-60
2022/10/07 03:15:09;;;;;;;;;;;;;;;5.33;100.00;99461.41;7382371;19;19915;-64
2022/10/07 03:17:39;;;;;;;;;;;;;;;5.36;100.00;99470.00;7387306;19;19914;-60
2022/10/07 03:20:14;;;;;;;;;;;;;;;5.58;100.00;99460.81;7384198;19;20291;-60
2022/10/07 03:22:44;;;;;;;;;;;;;;;5.38;100.00;99465.63;7379140;19;20252;-60
2022/10/07 03:25:19;;;;;;;;;;;;;;;5.15;100.00;99460.00;7386152;19;19930;-60
2022/10/07 03:27:50;;;;;;;;;;;;;;;5.14;100.00;99462.66;7386490;19;19942;-61
2022/10/07 03:30:24;;;;;;;;;;;;;;;5.47;100.00;99456.75;7382392;19;19970;-60
2022/10/07 03:32:56;;;;;;;;;;;;;;;5.68;100.00;99456.25;7384520;19;20323;-61
2022/10/07 03:35:26;;;;;;;;;;;;;;;5.71;100.00;99457.06;7382924;19;19937;-66
2022/10/07 03:37:56;;;;;;;;;;;;;;;5.22;100.00;99456.38;7382891;19;19918;-61
2022/10/07 03:40:26;;;;;;;;;;;;;;;5.20;100.00;99455.56;7383986;19;19915;-60
2022/10/07 03:42:59;;;;;;;;;;;;;;;5.09;100.00;99454.03;7379296;19;19921;-60
2022/10/07 03:45:36;;;;;;;;;;;;;;;5.13;100.00;99455.69;7384373;19;20323;-60
2022/10/07 03:48:06;;;;;;;;;;;;;;;5.20;100.00;99452.94;7385384;19;19922;-59
2022/10/07 03:50:36;;;;;;;;;;;;;;;5.20;100.00;99452.09;7379043;19;19923;-60
2022/10/07 03:53:06;;;;;;;;;;;;;;;5.12;100.00;99443.56;7383140;19;19918;-63
2022/10/07 03:55:37;;;;;;;;;;;;;;;4.81;100.00;99448.50;7385202;19;19919;-60
2022/10/07 03:58:07;;;;;;;;;;;;;;;4.89;100.00;99450.97;7385459;19;19914;-60
2022/10/07 04:00:40;;;;;;;;;;;;;;;4.88;100.00;99450.09;7382870;19;19938;-61
2022/10/07 04:03:10;;;;;;;;;;;;;;;5.07;100.00;99446.25;7381471;19;19928;-66
2022/10/07 04:05:40;;;;;;;;;;;;;;;5.13;100.00;99446.13;7382659;19;19915;-60
2022/10/07 04:08:16;;;;;;;;;;;;;;;5.08;100.00;99445.38;7382545;19;19911;-61
2022/10/07 04:10:48;;;;;;;;;;;;;;;4.90;100.00;99444.88;7378596;19;19925;-60
2022/10/07 04:13:18;;;;;;;;;;;;;;;4.83;100.00;99441.53;7382339;19;20257;-61
2022/10/07 04:15:51;;;;;;;;;;;;;;;4.82;100.00;99440.66;7383496;19;19918;-60
2022/10/07 04:18:21;;;;;;;;;;;;;;;4.90;100.00;99447.47;7377945;19;19921;-63
2022/10/07 04:20:51;;;;;;;;;;;;;;;4.89;100.00;99438.78;7383878;19;19958;-60
2022/10/07 04:23:24;;;;;;;;;;;;;;;4.78;100.00;99439.00;7385197;19;19914;-60
2022/10/07 04:25:54;;;;;;;;;;;;;;;4.83;100.00;99439.75;7377360;19;19975;-61
2022/10/07 04:28:26;;;;;;;;;;;;;;;4.74;100.00;99439.94;7383307;19;19911;-63
2022/10/07 04:31:08;;;;;;;;;;;;;;;4.70;100.00;99434.81;7380488;19;19959;-66
2022/10/07 04:33:43;;;;;;;;;;;;;;;4.64;100.00;99434.94;7384184;19;19911;-61
2022/10/07 04:36:16;;;;;;;;;;;;;;;4.86;100.00;99435.38;7384474;19;19946;-60
2022/10/07 04:38:55;;;;;;;;;;;;;;;4.76;100.00;99429.47;7382752;19;20446;-61
2022/10/07 04:41:29;;;;;;;;;;;;;;;4.72;100.00;99433.03;7383503;19;20360;-60
2022/10/07 04:43:59;;;;;;;;;;;;;;;4.62;100.00;99427.16;7372400;19;19918;-61
2022/10/07 04:46:36;;;;;;;;;;;;;;;4.87;100.00;99422.31;7377571;19;19930;-60
2022/10/07 04:49:12;;;;;;;;;;;;;;;4.47;100.00;99434.38;7375021;19;19929;-66
2022/10/07 04:51:42;;;;;;;;;;;;;;;4.64;100.00;99432.34;7381016;19;19922;-60
2022/10/07 04:54:12;;;;;;;;;;;;;;;4.55;100.00;99432.47;7380593;19;20327;-61
2022/10/07 04:56:56;;;;;;;;;;;;;;;4.56;100.00;99426.38;7374710;19;20277;-61
2022/10/07 04:59:28;;;;;;;;;;;;;;;4.39;100.00;99426.66;7378778;19;19994;-62
2022/10/07 05:02:01;;;;;;;;;;;;;;;4.81;100.00;99426.81;7383764;19;19915;-66
2022/10/07 05:04:35;;;;;;;;;;;;;;;4.68;100.00;99426.16;7384133;19;20530;-61
2022/10/07 05:07:07;;;;;;;;;;;;;;;4.81;100.00;99430.25;7386492;19;19942;-61
2022/10/07 05:09:39;;;;;;;;;;;;;;;4.68;100.00;99424.41;7381538;19;19922;-60
2022/10/07 05:12:08;;;;;;;;;;;;;;;4.75;100.00;99418.19;7386197;19;19919;-61
2022/10/07 05:14:40;;;;;;;;;;;;;;;4.74;100.00;99426.03;7389865;19;19919;-60
2022/10/07 05:17:13;;;;;;;;;;;;;;;4.88;100.00;99423.19;7385725;19;19925;-62
2022/10/07 05:19:43;;;;;;;;;;;;;;;5.12;100.00;99418.34;7388880;19;19911;-60
2022/10/07 05:22:13;;;;;;;;;;;;;;;4.85;100.00;99408.44;7391788;19;19915;-62
2022/10/07 05:24:44;;;;;;;;;;;;;;;4.95;100.00;99409.13;7386191;19;20245;-61
2022/10/07 05:27:15;;;;;;;;;;;;;;;4.81;100.00;99416.38;7389077;19;19915;-62
2022/10/07 05:29:46;;;;;;;;;;;;;;;4.79;100.00;99416.41;7383333;19;19918;-66
2022/10/07 05:32:18;;;;;;;;;;;;;;;4.83;100.00;99410.22;7384564;19;19915;-59
2022/10/07 05:34:48;;;;;;;;;;;;;;;5.09;100.00;99412.31;7388798;19;20015;-60
2022/10/07 05:37:19;;;;;;;;;;;;;;;5.08;100.00;99421.91;7386232;19;19918;-63
2022/10/07 05:39:50;;;;;;;;;;;;;;;5.49;100.00;99416.66;7387616;19;20322;-59
2022/10/07 05:42:23;;;;;;;;;;;;;;;5.71;100.00;99417.91;7388865;19;19932;-61
2022/10/07 05:44:57;;;;;;;;;;;;;;;5.97;100.00;99412.97;7381037;19;19919;-59
2022/10/07 05:47:32;;;;;;;;;;;;;;;5.79;100.00;99417.72;7391800;19;19915;-59
2022/10/07 05:50:02;;;;;;;;;;;;;;;5.80;100.00;99411.59;7386076;19;19921;-61
2022/10/07 05:52:32;;;;;;;;;;;;;;;6.03;100.00;99412.78;7386958;19;19914;-61
2022/10/07 05:55:02;;;;;;;;;;;;;;;6.22;100.00;99419.31;7387448;19;19915;-60
2022/10/07 05:57:38;;;;;;;;;;;;;;;6.36;100.00;99409.34;7386968;19;19910;-64
2022/10/07 06:00:10;;;;;;;;;;;;;;;6.53;100.00;99404.56;7386348;19;19922;-63
2022/10/07 06:02:53;;;;;;;;;;;;;;;6.82;100.00;99407.25;7388480;19;19918;-61
2022/10/07 06:05:22;;;;;;;;;;;;;;;6.88;100.00;99411.47;7385050;19;19938;-61
2022/10/07 06:07:52;;;;;;;;;;;;;;;6.95;100.00;99403.38;7387893;19;19943;-60
2022/10/07 06:13:09;;;;;;;;;;;;;;;6.94;100.00;99406.91;7387157;19;19919;-61
2022/10/07 06:15:42;;;;;;;;;;;;;;;7.09;100.00;99403.84;7384736;19;19922;-61
2022/10/07 06:18:14;;;;;;;;;;;;;;;7.17;100.00;99403.66;7381366;19;19922;-60
2022/10/07 06:20:54;;;;;;;;;;;;;;;7.20;100.00;99403.56;7388703;19;19930;-59
2022/10/07 06:23:25;;;;;;;;;;;;;;;7.36;100.00;99397.81;7381368;19;19967;-60
2022/10/07 06:25:57;;;;;;;;;;;;;;;7.52;100.00;99396.47;7386805;19;19918;-60
2022/10/07 06:28:30;;;;;;;;;;;;;;;7.42;100.00;99399.38;7388015;19;20319;-60
2022/10/07 06:31:00;;;;;;;;;;;;;;;7.40;100.00;99391.59;7385486;19;19919;-61
2022/10/07 06:33:37;;;;;;;;;;;;;;;7.55;100.00;99396.38;7385454;19;20339;-61
2022/10/07 06:36:08;;;;;;;;;;;;;;;7.77;100.00;99396.59;7384936;19;19925;-63
2022/10/07 06:38:46;;;;;;;;;;;;;;;8.02;100.00;99394.91;7385948;19;20363;-61
2022/10/07 06:41:17;;;;;;;;;;;;;;;7.99;100.00;99397.63;7386719;19;19911;-61
2022/10/07 06:43:48;;;;;;;;;;;;;;;8.21;100.00;99387.28;7382467;19;19915;-62
2022/10/07 06:46:18;;;;;;;;;;;;;;;8.24;100.00;99381.94;7387793;19;19921;-61
2022/10/07 06:48:54;;;;;;;;;;;;;;;8.46;100.00;99377.69;7385410;19;20371;-60
2022/10/07 06:51:24;;;;;;;;;;;;;;;8.49;100.00;99383.69;7384665;19;19919;-60
2022/10/07 06:53:56;;;;;;;;;;;;;;;8.73;100.00;99379.34;7386120;19;19923;-60
2022/10/07 06:56:27;;;;;;;;;;;;;;;8.79;100.00;99387.00;7381140;19;19927;-66
2022/10/07 06:58:56;;;;;;;;;;;;;;;8.85;100.00;99386.81;7386988;19;20449;-61
2022/10/07 07:01:37;;;;;;;;;;;;;;;9.29;100.00;99380.78;7387283;19;19974;-60
2022/10/07 07:04:09;;;;;;;;;;;;;;;9.19;100.00;99377.63;7381918;19;20327;-60
2022/10/07 07:06:39;;;;;;;;;;;;;;;9.44;100.00;99373.19;7386085;19;20316;-61
2022/10/07 07:09:14;;;;;;;;;;;;;;;9.50;100.00;99370.34;7386305;19;19911;-66
2022/10/07 07:11:46;;;;;;;;;;;;;;;9.44;100.00;99369.72;7386017;19;20819;-60
2022/10/07 07:14:26;;;;;;;;;;;;;;;9.61;100.00;99373.41;7386159;19;19915;-62
2022/10/07 07:17:02;;;;;;;;;;;;;;;9.67;100.00;99374.94;7385108;19;19911;-61
2022/10/07 07:19:35;;;;;;;;;;;;;;;9.65;100.00;99367.09;7387158;19;19914;-60
2022/10/07 07:22:05;;;;;;;;;;;;;;;9.65;100.00;99366.22;7382653;19;19925;-66
2022/10/07 07:24:35;;;;;;;;;;;;;;;9.93;100.00;99361.59;7386017;19;19911;-60
2022/10/07 07:27:06;;;;;;;;;;;;;;;9.87;100.00;99364.47;7387302;19;19943;-62
2022/10/07 07:29:36;;;;;;;;;;;;;;;10.21;100.00;99356.94;7381152;19;20309;-65
2022/10/07 07:32:07;;;;;;;;;;;;;;;9.93;100.00;99351.94;7386769;19;20792;-61
2022/10/07 07:34:43;;;;;;;;;;;;;;;10.23;100.00;99353.31;7385880;19;19910;-60
2022/10/07 07:37:19;;;;;;;;;;;;;;;9.99;100.00;99345.59;7382222;19;19911;-60
2022/10/07 07:39:52;;;;;;;;;;;;;;;9.95;100.00;99354.53;7385059;19;19921;-60
2022/10/07 07:42:22;;;;;;;;;;;;;;;10.25;100.00;99350.63;7384874;19;19921;-66
2022/10/07 07:44:54;;;;;;;;;;;;;;;10.32;100.00;99355.53;7385452;19;19922;-61
2022/10/07 07:47:23;;;;;;;;;;;;;;;10.25;100.00;99354.09;7385864;19;19926;-60
2022/10/07 07:49:56;;;;;;;;;;;;;;;10.18;100.00;99341.28;7378718;19;20320;-63
2022/10/07 07:52:35;;;;;;;;;;;;;;;10.29;100.00;99346.94;7384380;19;19925;-63
2022/10/07 07:55:07;;;;;;;;;;;;;;;10.35;100.00;99333.50;7378726;19;19966;-64
2022/10/07 07:57:38;;;;;;;;;;;;;;;10.45;100.00;99335.69;7379384;19;19919;-60
2022/10/07 08:00:14;;;;;;;;;;;;;;;10.33;100.00;99341.47;7382822;19;20506;-61
2022/10/07 08:02:53;;;;;;;;;;;;;;;10.51;100.00;99334.59;7377824;19;19922;-61
2022/10/07 08:05:26;;;;;;;;;;;;;;;10.43;100.00;99331.44;7383992;19;19914;-61
2022/10/07 08:07:59;;;;;;;;;;;;;;;10.54;100.00;99322.13;7384222;19;19925;-61
2022/10/07 08:10:30;;;;;;;;;;;;;;;10.56;100.00;99322.06;7380042;19;19918;-61
2022/10/07 08:13:00;;;;;;;;;;;;;;;10.53;100.00;99323.06;7383860;19;19918;-60
2022/10/07 08:15:29;;;;;;;;;;;;;;;10.58;100.00;99325.50;7385600;19;20340;-66
2022/10/07 08:17:59;;;;;;;;;;;;;;;10.67;100.00;99306.66;7381618;19;20296;-60
2022/10/07 08:20:32;;;;;;;;;;;;;;;10.95;100.00;99309.81;7386207;19;19922;-61
2022/10/07 08:23:02;;;;;;;;;;;;;;;10.87;100.00;99311.94;7381010;19;20263;-62
2022/10/07 08:25:32;;;;;;;;;;;;;;;10.84;100.00;99309.44;7384623;19;19921;-65
2022/10/07 08:28:05;;;;;;;;;;;;;;;10.88;100.00;99303.94;7383937;19;20323;-60
2022/10/07 08:30:35;;;;;;;;;;;;;;;11.09;100.00;99302.09;7378098;19;19978;-61
2022/10/07 08:33:05;;;;;;;;;;;;;;;11.10;100.00;99298.56;7384218;19;20018;-61
2022/10/07 08:35:41;;;;;;;;;;;;;;;10.96;100.00;99296.56;7385000;19;19922;-60
2022/10/07 08:38:11;;;;;;;;;;;;;;;11.19;100.00;99292.84;7386233;19;19911;-60
2022/10/07 08:40:48;;;;;;;;;;;;;;;11.17;100.00;99300.00;7390784;19;20319;-60
2022/10/07 08:43:18;;;;;;;;;;;;;;;11.23;100.00;99294.41;7393359;19;19922;-66
2022/10/07 08:45:48;;;;;;;;;;;;;;;11.23;100.00;99299.69;7392723;19;19914;-60
2022/10/07 08:48:20;;;;;;;;;;;;;;;11.39;100.00;99282.25;7390469;19;19919;-60
2022/10/07 08:50:56;;;;;;;;;;;;;;;11.47;100.00;99284.50;7387580;19;19918;-67
2022/10/07 08:53:32;;;;;;;;;;;;;;;11.47;100.00;99279.22;7389622;19;19980;-65
2022/10/07 08:56:08;;;;;;;;;;;;;;;11.65;100.00;99281.84;7394314;19;19922;-60
2022/10/07 08:58:45;;;;;;;;;;;;;;;11.88;100.00;99278.06;7389250;19;19922;-61
2022/10/07 09:01:21;;;;;;;;;;;;;;;12.08;100.00;99259.50;7393198;19;19942;-60
2022/10/07 09:03:58;;;;;;;;;;;;;;;12.33;100.00;99271.34;7388054;19;19935;-60
2022/10/07 09:06:33;;;;;;;;;;;;;;;12.27;100.00;99269.03;7394133;19;19918;-60
2022/10/07 09:09:04;;;;;;;;;;;;;;;12.18;100.00;99261.59;7387947;19;20330;-66
2022/10/07 09:11:49;;;;;;;;;;;;;;;12.36;100.00;99258.00;7388665;19;20342;-61
2022/10/07 09:14:26;;;;;;;;;;;;;;;12.54;100.00;99251.75;7387806;19;19928;-67
2022/10/07 09:16:57;;;;;;;;;;;;;;;12.52;100.00;99250.13;7392190;19;20366;-62
2022/10/07 09:19:42;;;;;;;;;;;;;;;12.35;100.00;99256.31;7391782;19;19911;-62
2022/10/07 09:22:20;;;;;;;;;;;;;;;12.37;100.00;99253.59;7392137;19;20346;-62
2022/10/07 09:24:51;;;;;;;;;;;;;;;12.59;100.00;99249.72;7392454;19;19970;-61
2022/10/07 09:27:22;;;;;;;;;;;;;;;12.86;100.00;99250.03;7386576;19;19911;-61
2022/10/07 09:29:51;;;;;;;;;;;;;;;12.71;100.00;99243.78;7391719;19;19939;-61
2022/10/07 09:32:22;;;;;;;;;;;;;;;12.91;100.00;99243.56;7390200;19;19922;-61
2022/10/07 09:34:52;;;;;;;;;;;;;;;12.82;100.00;99241.41;7386403;19;19927;-60
2022/10/07 09:37:26;;;;;;;;;;;;;;;13.06;100.00;99239.25;7391692;19;19915;-61
2022/10/07 09:39:57;;;;;;;;;;;;;;;12.92;100.00;99239.97;7391662;19;20259;-64
2022/10/07 09:42:36;;;;;;;;;;;;;;;13.01;100.00;99239.50;7389825;19;20901;-61
2022/10/07 09:45:09;;;;;;;;;;;;;;;13.16;100.00;99235.19;7392712;19;19991;-62
2022/10/07 09:47:40;;;;;;;;;;;;;;;13.33;100.00;99225.34;7385502;19;19911;-61
2022/10/07 09:50:31;;;;;;;;;;;;;;;13.24;100.00;99215.31;7390839;19;19970;-62
2022/10/07 09:53:03;;;;;;;;;;;;;;;13.30;100.00;99212.31;7383383;19;20333;-61
2022/10/07 09:55:36;;;;;;;;;;;;;;;13.32;100.00;99201.66;7390488;19;19922;-61
2022/10/07 09:58:19;;;;;;;;;;;;;;;13.25;100.00;99211.72;7387111;19;19921;-67
2022/10/07 10:00:52;;;;;;;;;;;;;;;13.44;100.00;99193.03;7391124;19;20508;-63
2022/10/07 10:03:22;;;;;;;;;;;;;;;13.62;100.00;99195.47;7390956;19;19927;-61
2022/10/07 10:05:57;;;;;;;;;;;;;;;13.71;100.00;99184.38;7384077;19;19932;-61
2022/10/07 10:08:33;;;;;;;;;;;;;;;13.32;100.00;99186.66;7390900;19;20559;-62
2022/10/07 10:11:04;;;;;;;;;;;;;;;13.50;100.00;99182.09;7385043;19;20248;-63
2022/10/07 10:13:36;;;;;;;;;;;;;;;13.35;100.00;99180.34;7390892;19;19919;-61
2022/10/07 10:16:07;;;;;;;;;;;;;;;13.67;100.00;99190.78;7391555;19;19982;-61
2022/10/07 10:18:38;;;;;;;;;;;;;;;13.58;100.00;99178.06;7382873;19;19970;-61
2022/10/07 10:21:23;;;;;;;;;;;;;;;13.12;100.00;99181.66;7390089;19;19925;-62
2022/10/07 10:23:57;;;;;;;;;;;;;;;13.67;100.00;99174.91;7385027;19;19917;-67
2022/10/07 10:26:40;;;;;;;;;;;;;;;13.53;100.00;99174.84;7388981;19;20298;-61
2022/10/07 10:29:14;;;;;;;;;;;;;;;13.72;100.00;99170.19;7385473;19;20258;-66
2022/10/07 10:31:55;;;;;;;;;;;;;;;13.86;100.00;99164.94;7388720;19;20000;-61
2022/10/07 10:34:34;;;;;;;;;;;;;;;13.75;100.00;99159.44;7388900;19;19911;-61
2022/10/07 10:37:10;;;;;;;;;;;;;;;13.82;100.00;99149.34;7389041;19;19926;-64
2022/10/07 10:39:50;;;;;;;;;;;;;;;13.91;100.00;99152.28;7390634;19;20340;-61
2022/10/07 10:42:24;;;;;;;;;;;;;;;13.53;100.00;99142.25;7386201;19;19919;-61
2022/10/07 10:45:06;;;;;;;;;;;;;;;14.01;100.00;99144.63;7388822;19;20305;-62
2022/10/07 10:47:43;;;;;;;;;;;;;;;13.90;100.00;99141.78;7385223;19;19935;-62
2022/10/07 10:50:18;;;;;;;;;;;;;;;14.04;100.00;99142.66;7387991;19;19935;-60
2022/10/07 10:52:55;;;;;;;;;;;;;;;14.00;100.00;99132.34;7383320;19;19938;-62
2022/10/07 10:55:42;;;;;;;;;;;;;;;14.30;100.00;99131.38;7388312;19;20332;-61
2022/10/07 10:58:24;;;;;;;;;;;;;;;14.20;100.00;99122.28;7381372;19;19921;-65
2022/10/07 11:00:58;;;;;;;;;;;;;;;14.24;100.00;99120.28;7385303;19;20774;-60
2022/10/07 11:03:43;;;;;;;;;;;;;;;14.02;100.00;99115.44;7382634;19;19919;-67
2022/10/07 11:06:15;;;;;;;;;;;;;;;14.29;100.00;99100.53;7387162;19;19915;-63
2022/10/07 11:08:50;;;;;;;;;;;;;;;14.38;100.00;99107.06;7381544;19;20425;-68
2022/10/07 11:11:27;;;;;;;;;;;;;;;14.30;100.00;99099.59;7385348;19;19945;-62
2022/10/07 11:14:02;;;;;;;;;;;;;;;14.51;100.00;99087.66;7389059;19;19943;-61
2022/10/07 11:16:38;;;;;;;;;;;;;;;14.33;100.00;99091.44;7385478;19;20775;-61
2022/10/07 11:19:12;;;;;;;;;;;;;;;14.35;100.00;99088.69;7387246;19;19949;-61
2022/10/07 11:21:44;;;;;;;;;;;;;;;14.43;100.00;99070.56;7382254;19;19986;-61
2022/10/07 11:24:16;;;;;;;;;;;;;;;14.37;100.00;99071.81;7388283;19;19922;-61
2022/10/07 11:26:50;;;;;;;;;;;;;;;14.29;100.00;99060.81;7388271;19;19931;-61
2022/10/07 11:29:29;;;;;;;;;;;;;;;14.54;100.00;99062.78;7381523;19;19915;-61
2022/10/07 11:32:00;;;;;;;;;;;;;;;14.47;100.00;99051.72;7386452;19;19922;-60
2022/10/07 11:34:35;;;;;;;;;;;;;;;14.49;100.00;99056.91;7382928;19;19915;-61
2022/10/07 11:37:09;;;;;;;;;;;;;;;14.59;100.00;99047.44;7388297;19;19927;-61
2022/10/07 11:39:39;;;;;;;;;;;;;;;14.46;100.00;99047.38;7387583;19;19986;-65
2022/10/07 11:42:12;;;;;;;;;;;;;;;14.38;100.00;99040.84;7382989;19;19938;-60
2022/10/07 11:44:48;;;;;;;;;;;;;;;14.67;100.00;99031.91;7386363;19;20359;-60
2022/10/07 11:47:20;;;;;;;;;;;;;;;14.70;100.00;99025.53;7382503;19;20324;-68
2022/10/07 11:49:56;;;;;;;;;;;;;;;14.84;100.00;99025.50;7385581;19;19930;-62
2022/10/07 11:52:28;;;;;;;;;;;;;;;14.91;100.00;99016.19;7384623;19;19922;-61
2022/10/07 11:55:02;;;;;;;;;;;;;;;14.65;100.00;99014.41;7380213;19;19922;-61
2022/10/07 11:57:34;;;;;;;;;;;;;;;14.80;100.00;99008.09;7385143;19;19921;-61
2022/10/07 12:00:08;;;;;;;;;;;;;;;15.09;100.00;99004.38;7383724;19;19923;-63
2022/10/07 12:02:49;;;;;;;;;;;;;;;14.94;100.00;99000.09;7387173;19;19923;-62
2022/10/07 12:05:42;;;;;;;;;;;;;;;14.62;100.00;98998.72;7386556;19;19932;-61
2022/10/07 12:08:27;;;;;;;;;;;;;;;14.79;100.00;99001.13;7384023;19;19914;-61
2022/10/07 12:10:58;;;;;;;;;;;;;;;14.97;100.00;98997.25;7385189;19;20296;-62
2022/10/07 12:13:39;;;;;;;;;;;;;;;14.86;100.00;98989.16;7401488;19;20327;-62
2022/10/07 12:16:29;;;;;;;;;;;;;;;15.25;100.00;98983.84;7393818;19;19939;-61
2022/10/07 12:19:13;;;;;;;;;;;;;;;15.13;100.00;98984.69;7398200;19;19980;-65
2022/10/07 12:21:58;;;;;;;;;;;;;;;15.18;100.00;98978.13;7395341;19;19922;-61
2022/10/07 12:24:31;;;;;;;;;;;;;;;15.10;100.00;98974.25;7400222;19;19918;-61
2022/10/07 12:27:08;;;;;;;;;;;;;;;14.96;100.00;98982.28;7393826;19;19914;-61
2022/10/07 12:29:57;;;;;;;;;;;;;;;14.97;100.00;98971.59;7397338;19;19918;-61
2022/10/07 12:32:46;;;;;;;;;;;;;;;14.97;100.00;98976.06;7396691;19;19914;-60
2022/10/07 12:35:33;;;;;;;;;;;;;;;15.10;100.00;98961.00;7400493;19;20359;-64
2022/10/07 12:38:11;;;;;;;;;;;;;;;15.27;100.00;98960.75;7400819;19;20228;-63
2022/10/07 12:40:44;;;;;;;;;;;;;;;15.43;100.00;98956.09;7397564;19;19919;-66
2022/10/07 12:43:24;;;;;;;;;;;;;;;15.15;100.00;98959.78;7394998;19;19914;-64
2022/10/07 12:45:55;;;;;;;;;;;;;;;15.13;100.00;98959.03;7393691;19;20398;-61
2022/10/07 12:48:26;;;;;;;;;;;;;;;15.33;100.00;98957.66;7394397;19;19914;-60
2022/10/07 12:50:59;;;;;;;;;;;;;;;15.46;100.00;98963.84;7398201;19;19926;-61
2022/10/07 12:53:29;;;;;;;;;;;;;;;15.39;100.00;98963.41;7393963;19;19922;-67
2022/10/07 12:56:02;;;;;;;;;;;;;;;15.22;100.00;98952.25;7398476;19;19922;-61
2022/10/07 13:01:35;;;;;;;;;;;;;;;15.33;100.00;98949.72;7397301;19;19915;-62
2022/10/07 13:04:15;;;;;;;;;;;;;;;15.41;100.00;98942.94;7398095;19;19937;-62
2022/10/07 13:06:59;;;;;;;;;;;;;;;15.38;100.00;98937.81;7399192;19;19943;-62
2022/10/07 13:09:49;;;;;;;;;;;;;;;15.41;100.00;98928.81;7392071;19;20339;-61
2022/10/07 13:12:32;;;;;;;;;;;;;;;15.33;100.00;98929.34;7391432;19;19917;-61
2022/10/07 13:15:18;;;;;;;;;;;;;;;15.27;100.00;98926.28;7389409;19;19930;-62
2022/10/07 13:17:53;;;;;;;;;;;;;;;15.50;100.00;98917.56;7393537;19;19919;-61
2022/10/07 13:20:43;;;;;;;;;;;;;;;15.40;100.00;98917.38;7390137;19;19918;-63
2022/10/07 13:23:18;;;;;;;;;;;;;;;15.52;100.00;98911.19;7388446;19;19914;-61